sensor_id;sensor_type;location;lat;lon;timestamp;temperature;humidity
7155;DHT22;3619;53.784;10.440;2023-08-20T00:01:55;18.20;99.90
7155;DHT22;3619;53.784;10.440;2023-08-20T00:04:26;18.20;99.90
7155;DHT22;3619;53.784;10.440;2023-08-20T00:06:53;18.20;99.90
7155;DHT22;3619;53.784;10.440;2023-08-20T00:09:20;18.20;99.90
7155;DHT22;3619;53.784;10.440;2023-08-20T00:11:49;18.20;99.90
7155;DHT22;3619;53.784;10.440;2023-08-20T00:14:17;18.20;99.90
7155;DHT22;3619;53.784;10.440;2023-08-20T00:16:45;18.10;99.90
7155;DHT22;3619;53.784;10.440;2023-08-20T00:19:14;18.10;99.90
7155;DHT22;3619;53.784;10.440;2023-08-20T00:21:41;18.00;99.90
7155;DHT22;3619;53.784;10.440;2023-08-20T00:24:11;18.00;99.90
7155;DHT22;3619;53.784;10.440;2023-08-20T00:26:38;18.00;99.90
7155;DHT22;3619;53.784;10.440;2023-08-20T00:29:05;18.00;99.90
7155;DHT22;3619;53.784;10.440;2023-08-20T00:31:33;18.00;99.90
7155;DHT22;3619;53.784;10.440;2023-08-20T00:34:00;18.00;99.90
7155;DHT22;3619;53.784;10.440;2023-08-20T00:36:28;17.90;99.90
7155;DHT22;3619;53.784;10.440;2023-08-20T00:38:57;17.90;99.90
7155;DHT22;3619;53.784;10.440;2023-08-20T00:41:24;17.90;99.90
7155;DHT22;3619;53.784;10.440;2023-08-20T00:43:50;17.80;99.90
7155;DHT22;3619;53.784;10.440;2023-08-20T00:46:17;17.80;99.90
7155;DHT22;3619;53.784;10.440;2023-08-20T00:48:55;17.80;99.90
7155;DHT22;3619;53.784;10.440;2023-08-20T00:51:22;17.80;99.90
7155;DHT22;3619;53.784;10.440;2023-08-20T00:53:50;17.70;99.90
7155;DHT22;3619;53.784;10.440;2023-08-20T00:56:16;17.60;99.90
7155;DHT22;3619;53.784;10.440;2023-08-20T00:58:46;17.60;99.90
7155;DHT22;3619;53.784;10.440;2023-08-20T01:01:13;17.60;99.90
7155;DHT22;3619;53.784;10.440;2023-08-20T01:03:40;17.50;99.90
7155;DHT22;3619;53.784;10.440;2023-08-20T01:06:15;17.40;99.90
7155;DHT22;3619;53.784;10.440;2023-08-20T01:08:49;17.40;99.90
7155;DHT22;3619;53.784;10.440;2023-08-20T01:11:26;17.40;99.90
7155;DHT22;3619;53.784;10.440;2023-08-20T01:13:56;17.40;99.90
7155;DHT22;3619;53.784;10.440;2023-08-20T01:16:30;17.40;99.90
7155;DHT22;3619;53.784;10.440;2023-08-20T01:18:59;17.50;99.90
7155;DHT22;3619;53.784;10.440;2023-08-20T01:21:34;17.40;99.90
7155;DHT22;3619;53.784;10.440;2023-08-20T01:24:15;17.40;99.90
7155;DHT22;3619;53.784;10.440;2023-08-20T01:26:54;17.50;99.90
7155;DHT22;3619;53.784;10.440;2023-08-20T01:29:24;17.40;99.90
7155;DHT22;3619;53.784;10.440;2023-08-20T01:31:53;17.40;99.90
7155;DHT22;3619;53.784;10.440;2023-08-20T01:34:21;17.40;99.90
7155;DHT22;3619;53.784;10.440;2023-08-20T01:36:51;17.40;99.90
7155;DHT22;3619;53.784;10.440;2023-08-20T01:39:18;17.40;99.90
7155;DHT22;3619;53.784;10.440;2023-08-20T01:41:45;17.40;99.90
7155;DHT22;3619;53.784;10.440;2023-08-20T01:44:12;17.40;99.90
7155;DHT22;3619;53.784;10.440;2023-08-20T01:46:41;17.40;99.90
7155;DHT22;3619;53.784;10.440;2023-08-20T01:49:08;17.40;99.90
7155;DHT22;3619;53.784;10.440;2023-08-20T01:51:35;17.40;99.90
7155;DHT22;3619;53.784;10.440;2023-08-20T01:54:02;17.40;99.90
7155;DHT22;3619;53.784;10.440;2023-08-20T01:56:29;17.40;99.90
7155;DHT22;3619;53.784;10.440;2023-08-20T01:58:56;17.40;99.90
7155;DHT22;3619;53.784;10.440;2023-08-20T02:01:22;17.40;99.90
7155;DHT22;3619;53.784;10.440;2023-08-20T02:03:51;17.40;99.90
7155;DHT22;3619;53.784;10.440;2023-08-20T02:06:18;17.40;99.90
7155;DHT22;3619;53.784;10.440;2023-08-20T02:08:45;17.40;99.90
7155;DHT22;3619;53.784;10.440;2023-08-20T02:11:12;17.40;99.90
7155;DHT22;3619;53.784;10.440;2023-08-20T02:13:39;17.40;99.90
7155;DHT22;3619;53.784;10.440;2023-08-20T02:16:06;17.50;99.90
7155;DHT22;3619;53.784;10.440;2023-08-20T02:18:34;17.40;99.90
7155;DHT22;3619;53.784;10.440;2023-08-20T02:21:02;17.30;99.90
7155;DHT22;3619;53.784;10.440;2023-08-20T02:23:29;17.30;99.90
7155;DHT22;3619;53.784;10.440;2023-08-20T02:25:56;17.30;99.90
7155;DHT22;3619;53.784;10.440;2023-08-20T02:28:23;17.40;99.90
7155;DHT22;3619;53.784;10.440;2023-08-20T02:30:50;17.40;99.90
7155;DHT22;3619;53.784;10.440;2023-08-20T02:33:17;17.50;99.90
7155;DHT22;3619;53.784;10.440;2023-08-20T02:35:43;17.60;99.90
7155;DHT22;3619;53.784;10.440;2023-08-20T02:38:13;17.50;99.90
7155;DHT22;3619;53.784;10.440;2023-08-20T02:40:41;17.60;99.90
7155;DHT22;3619;53.784;10.440;2023-08-20T02:43:08;17.50;99.90
7155;DHT22;3619;53.784;10.440;2023-08-20T02:45:40;17.40;99.90
7155;DHT22;3619;53.784;10.440;2023-08-20T02:48:08;17.50;99.90
7155;DHT22;3619;53.784;10.440;2023-08-20T02:50:35;17.40;99.90
7155;DHT22;3619;53.784;10.440;2023-08-20T02:53:02;17.40;99.90
7155;DHT22;3619;53.784;10.440;2023-08-20T02:55:33;17.30;99.90
7155;DHT22;3619;53.784;10.440;2023-08-20T02:58:04;17.20;99.90
7155;DHT22;3619;53.784;10.440;2023-08-20T03:00:33;17.20;99.90
7155;DHT22;3619;53.784;10.440;2023-08-20T03:03:00;17.20;99.90
7155;DHT22;3619;53.784;10.440;2023-08-20T03:05:28;17.10;99.90
7155;DHT22;3619;53.784;10.440;2023-08-20T03:07:55;17.10;99.90
7155;DHT22;3619;53.784;10.440;2023-08-20T03:10:21;17.10;99.90
7155;DHT22;3619;53.784;10.440;2023-08-20T03:12:49;17.00;99.90
7155;DHT22;3619;53.784;10.440;2023-08-20T03:15:16;17.00;99.90
7155;DHT22;3619;53.784;10.440;2023-08-20T03:17:43;16.90;99.90
7155;DHT22;3619;53.784;10.440;2023-08-20T03:20:10;16.90;99.90
7155;DHT22;3619;53.784;10.440;2023-08-20T03:22:38;16.90;99.90
7155;DHT22;3619;53.784;10.440;2023-08-20T03:25:07;16.90;99.90
7155;DHT22;3619;53.784;10.440;2023-08-20T03:27:34;16.90;99.90
7155;DHT22;3619;53.784;10.440;2023-08-20T03:30:02;17.00;99.90
7155;DHT22;3619;53.784;10.440;2023-08-20T03:32:29;16.90;99.90
7155;DHT22;3619;53.784;10.440;2023-08-20T03:34:56;16.90;99.90
7155;DHT22;3619;53.784;10.440;2023-08-20T03:37:25;16.90;99.90
7155;DHT22;3619;53.784;10.440;2023-08-20T03:39:52;16.80;99.90
7155;DHT22;3619;53.784;10.440;2023-08-20T03:42:19;16.90;99.90
7155;DHT22;3619;53.784;10.440;2023-08-20T03:44:46;16.90;99.90
7155;DHT22;3619;53.784;10.440;2023-08-20T03:47:16;16.90;99.90
7155;DHT22;3619;53.784;10.440;2023-08-20T03:49:45;16.80;99.90
7155;DHT22;3619;53.784;10.440;2023-08-20T03:52:12;16.90;99.90
7155;DHT22;3619;53.784;10.440;2023-08-20T03:54:39;16.80;99.90
7155;DHT22;3619;53.784;10.440;2023-08-20T03:57:06;16.80;99.90
7155;DHT22;3619;53.784;10.440;2023-08-20T03:59:33;16.80;99.90
7155;DHT22;3619;53.784;10.440;2023-08-20T04:01:59;16.70;99.90
7155;DHT22;3619;53.784;10.440;2023-08-20T04:04:27;16.70;99.90
7155;DHT22;3619;53.784;10.440;2023-08-20T04:06:54;16.60;99.90
7155;DHT22;3619;53.784;10.440;2023-08-20T04:09:21;16.60;99.90
7155;DHT22;3619;53.784;10.440;2023-08-20T04:11:48;16.70;99.90
7155;DHT22;3619;53.784;10.440;2023-08-20T04:14:15;16.70;99.90
7155;DHT22;3619;53.784;10.440;2023-08-20T04:16:42;16.70;99.90
7155;DHT22;3619;53.784;10.440;2023-08-20T04:19:08;16.80;99.90
7155;DHT22;3619;53.784;10.440;2023-08-20T04:21:37;16.80;99.90
7155;DHT22;3619;53.784;10.440;2023-08-20T04:24:04;16.80;99.90
7155;DHT22;3619;53.784;10.440;2023-08-20T04:26:31;16.80;99.90
7155;DHT22;3619;53.784;10.440;2023-08-20T04:28:58;16.90;99.90
7155;DHT22;3619;53.784;10.440;2023-08-20T04:31:25;16.90;99.90
7155;DHT22;3619;53.784;10.440;2023-08-20T04:33:52;16.90;99.90
7155;DHT22;3619;53.784;10.440;2023-08-20T04:36:18;16.90;99.90
7155;DHT22;3619;53.784;10.440;2023-08-20T04:38:46;16.80;99.90
7155;DHT22;3619;53.784;10.440;2023-08-20T04:41:13;16.70;99.90
7155;DHT22;3619;53.784;10.440;2023-08-20T04:43:40;16.70;99.90
7155;DHT22;3619;53.784;10.440;2023-08-20T04:46:07;16.70;99.90
7155;DHT22;3619;53.784;10.440;2023-08-20T04:48:36;16.80;99.90
7155;DHT22;3619;53.784;10.440;2023-08-20T04:51:03;16.80;99.90
7155;DHT22;3619;53.784;10.440;2023-08-20T04:53:30;16.80;99.90
7155;DHT22;3619;53.784;10.440;2023-08-20T04:56:01;16.90;99.90
7155;DHT22;3619;53.784;10.440;2023-08-20T04:58:28;16.80;99.90
7155;DHT22;3619;53.784;10.440;2023-08-20T05:00:55;16.90;99.90
7155;DHT22;3619;53.784;10.440;2023-08-20T05:03:22;16.90;99.90
7155;DHT22;3619;53.784;10.440;2023-08-20T05:05:49;17.00;99.90
7155;DHT22;3619;53.784;10.440;2023-08-20T05:08:16;17.00;99.90
7155;DHT22;3619;53.784;10.440;2023-08-20T05:10:43;17.10;99.90
7155;DHT22;3619;53.784;10.440;2023-08-20T05:13:11;17.10;99.90
7155;DHT22;3619;53.784;10.440;2023-08-20T05:15:38;17.10;99.90
7155;DHT22;3619;53.784;10.440;2023-08-20T05:18:05;17.20;99.90
7155;DHT22;3619;53.784;10.440;2023-08-20T05:20:32;17.20;99.90
7155;DHT22;3619;53.784;10.440;2023-08-20T05:22:59;17.20;99.90
7155;DHT22;3619;53.784;10.440;2023-08-20T05:25:26;17.20;99.90
7155;DHT22;3619;53.784;10.440;2023-08-20T05:27:53;17.30;99.90
7155;DHT22;3619;53.784;10.440;2023-08-20T05:30:21;17.30;99.90
7155;DHT22;3619;53.784;10.440;2023-08-20T05:32:48;17.30;99.90
7155;DHT22;3619;53.784;10.440;2023-08-20T05:35:15;17.30;99.90
7155;DHT22;3619;53.784;10.440;2023-08-20T05:37:42;17.30;99.90
7155;DHT22;3619;53.784;10.440;2023-08-20T05:40:09;17.30;99.90
7155;DHT22;3619;53.784;10.440;2023-08-20T05:42:36;17.30;99.90
7155;DHT22;3619;53.784;10.440;2023-08-20T05:45:04;17.30;99.90
7155;DHT22;3619;53.784;10.440;2023-08-20T05:47:34;17.30;99.90
7155;DHT22;3619;53.784;10.440;2023-08-20T05:50:02;17.30;99.90
7155;DHT22;3619;53.784;10.440;2023-08-20T05:52:32;17.40;99.90
7155;DHT22;3619;53.784;10.440;2023-08-20T05:54:58;17.50;99.90
7155;DHT22;3619;53.784;10.440;2023-08-20T05:57:25;17.50;99.90
7155;DHT22;3619;53.784;10.440;2023-08-20T05:59:52;17.60;99.90
7155;DHT22;3619;53.784;10.440;2023-08-20T06:02:19;17.60;99.90
7155;DHT22;3619;53.784;10.440;2023-08-20T06:04:47;17.70;99.90
7155;DHT22;3619;53.784;10.440;2023-08-20T06:07:16;17.70;99.90
7155;DHT22;3619;53.784;10.440;2023-08-20T06:09:43;17.80;99.90
7155;DHT22;3619;53.784;10.440;2023-08-20T06:12:15;17.90;99.90
7155;DHT22;3619;53.784;10.440;2023-08-20T06:14:42;17.90;99.90
7155;DHT22;3619;53.784;10.440;2023-08-20T06:17:11;17.90;99.90
7155;DHT22;3619;53.784;10.440;2023-08-20T06:19:38;17.90;99.90
7155;DHT22;3619;53.784;10.440;2023-08-20T06:22:06;17.90;99.90
7155;DHT22;3619;53.784;10.440;2023-08-20T06:24:33;17.80;99.90
7155;DHT22;3619;53.784;10.440;2023-08-20T06:27:00;17.90;99.90
7155;DHT22;3619;53.784;10.440;2023-08-20T06:29:27;17.80;99.90
7155;DHT22;3619;53.784;10.440;2023-08-20T06:31:54;17.90;99.90
7155;DHT22;3619;53.784;10.440;2023-08-20T06:34:23;17.90;99.90
7155;DHT22;3619;53.784;10.440;2023-08-20T06:36:49;18.10;99.90
7155;DHT22;3619;53.784;10.440;2023-08-20T06:39:18;18.10;99.90
7155;DHT22;3619;53.784;10.440;2023-08-20T06:41:45;18.10;99.90
7155;DHT22;3619;53.784;10.440;2023-08-20T06:44:12;18.00;99.90
7155;DHT22;3619;53.784;10.440;2023-08-20T06:46:39;18.10;99.90
7155;DHT22;3619;53.784;10.440;2023-08-20T06:49:06;18.30;99.90
7155;DHT22;3619;53.784;10.440;2023-08-20T06:51:33;18.50;99.90
7155;DHT22;3619;53.784;10.440;2023-08-20T06:54:00;18.60;99.90
7155;DHT22;3619;53.784;10.440;2023-08-20T06:56:28;18.80;99.90
7155;DHT22;3619;53.784;10.440;2023-08-20T06:58:55;18.90;99.90
7155;DHT22;3619;53.784;10.440;2023-08-20T07:01:21;19.30;99.90
7155;DHT22;3619;53.784;10.440;2023-08-20T07:03:48;19.60;99.90
7155;DHT22;3619;53.784;10.440;2023-08-20T07:06:15;19.70;99.90
7155;DHT22;3619;53.784;10.440;2023-08-20T07:08:43;19.80;99.90
7155;DHT22;3619;53.784;10.440;2023-08-20T07:11:10;20.00;99.90
7155;DHT22;3619;53.784;10.440;2023-08-20T07:13:39;20.30;99.90
7155;DHT22;3619;53.784;10.440;2023-08-20T07:16:07;20.30;99.90
7155;DHT22;3619;53.784;10.440;2023-08-20T07:18:34;20.60;99.90
7155;DHT22;3619;53.784;10.440;2023-08-20T07:21:01;20.40;99.90
7155;DHT22;3619;53.784;10.440;2023-08-20T07:23:28;20.60;99.90
7155;DHT22;3619;53.784;10.440;2023-08-20T07:26:04;20.80;99.90
7155;DHT22;3619;53.784;10.440;2023-08-20T07:28:31;21.00;99.90
7155;DHT22;3619;53.784;10.440;2023-08-20T07:31:13;20.90;99.90
7155;DHT22;3619;53.784;10.440;2023-08-20T07:33:40;21.20;99.90
7155;DHT22;3619;53.784;10.440;2023-08-20T07:36:08;21.10;99.90
7155;DHT22;3619;53.784;10.440;2023-08-20T07:38:36;21.30;99.90
7155;DHT22;3619;53.784;10.440;2023-08-20T07:41:06;21.70;99.90
7155;DHT22;3619;53.784;10.440;2023-08-20T07:43:33;21.50;99.90
7155;DHT22;3619;53.784;10.440;2023-08-20T07:46:00;21.50;99.90
7155;DHT22;3619;53.784;10.440;2023-08-20T07:48:28;21.70;99.90
7155;DHT22;3619;53.784;10.440;2023-08-20T07:50:55;21.80;99.90
7155;DHT22;3619;53.784;10.440;2023-08-20T07:53:22;21.90;99.90
7155;DHT22;3619;53.784;10.440;2023-08-20T07:55:48;22.00;99.90
7155;DHT22;3619;53.784;10.440;2023-08-20T07:58:15;21.70;99.90
7155;DHT22;3619;53.784;10.440;2023-08-20T08:00:42;21.40;99.90
7155;DHT22;3619;53.784;10.440;2023-08-20T08:03:09;21.20;99.90
7155;DHT22;3619;53.784;10.440;2023-08-20T08:05:37;21.10;99.90
7155;DHT22;3619;53.784;10.440;2023-08-20T08:08:05;21.10;99.90
7155;DHT22;3619;53.784;10.440;2023-08-20T08:10:32;21.20;99.90
7155;DHT22;3619;53.784;10.440;2023-08-20T08:12:59;21.40;99.90
7155;DHT22;3619;53.784;10.440;2023-08-20T08:15:26;21.80;99.90
7155;DHT22;3619;53.784;10.440;2023-08-20T08:17:53;22.50;99.90
7155;DHT22;3619;53.784;10.440;2023-08-20T08:20:20;22.70;99.90
7155;DHT22;3619;53.784;10.440;2023-08-20T08:22:49;22.10;99.90
7155;DHT22;3619;53.784;10.440;2023-08-20T08:25:16;21.80;99.90
7155;DHT22;3619;53.784;10.440;2023-08-20T08:27:43;21.60;99.90
7155;DHT22;3619;53.784;10.440;2023-08-20T08:30:11;21.70;99.90
7155;DHT22;3619;53.784;10.440;2023-08-20T08:32:40;22.40;99.90
7155;DHT22;3619;53.784;10.440;2023-08-20T08:35:07;22.80;99.90
7155;DHT22;3619;53.784;10.440;2023-08-20T08:37:34;22.90;99.90
7155;DHT22;3619;53.784;10.440;2023-08-20T08:40:03;23.00;99.90
7155;DHT22;3619;53.784;10.440;2023-08-20T08:42:32;23.30;99.90
7155;DHT22;3619;53.784;10.440;2023-08-20T08:45:07;23.30;99.90
7155;DHT22;3619;53.784;10.440;2023-08-20T08:47:36;23.50;99.90
7155;DHT22;3619;53.784;10.440;2023-08-20T08:50:04;23.30;99.90
7155;DHT22;3619;53.784;10.440;2023-08-20T08:52:31;23.10;99.90
7155;DHT22;3619;53.784;10.440;2023-08-20T08:54:58;23.10;99.90
7155;DHT22;3619;53.784;10.440;2023-08-20T08:57:27;23.10;99.90
7155;DHT22;3619;53.784;10.440;2023-08-20T08:59:53;23.30;99.90
7155;DHT22;3619;53.784;10.440;2023-08-20T09:02:20;23.10;99.90
7155;DHT22;3619;53.784;10.440;2023-08-20T09:04:49;23.10;99.90
7155;DHT22;3619;53.784;10.440;2023-08-20T09:07:16;23.10;99.90
7155;DHT22;3619;53.784;10.440;2023-08-20T09:09:44;22.90;99.90
7155;DHT22;3619;53.784;10.440;2023-08-20T09:12:14;22.80;99.90
7155;DHT22;3619;53.784;10.440;2023-08-20T09:14:48;22.70;99.90
7155;DHT22;3619;53.784;10.440;2023-08-20T09:17:15;22.60;99.90
7155;DHT22;3619;53.784;10.440;2023-08-20T09:19:44;22.50;99.90
7155;DHT22;3619;53.784;10.440;2023-08-20T09:22:11;22.40;99.90
7155;DHT22;3619;53.784;10.440;2023-08-20T09:24:40;22.10;99.90
7155;DHT22;3619;53.784;10.440;2023-08-20T09:27:08;22.30;99.90
7155;DHT22;3619;53.784;10.440;2023-08-20T09:29:50;22.10;99.90
7155;DHT22;3619;53.784;10.440;2023-08-20T09:32:19;22.20;99.90
7155;DHT22;3619;53.784;10.440;2023-08-20T09:34:55;22.50;99.90
7155;DHT22;3619;53.784;10.440;2023-08-20T09:37:23;22.70;99.90
7155;DHT22;3619;53.784;10.440;2023-08-20T09:39:51;22.60;99.90
7155;DHT22;3619;53.784;10.440;2023-08-20T09:42:18;22.50;99.90
7155;DHT22;3619;53.784;10.440;2023-08-20T09:44:46;22.50;99.90
7155;DHT22;3619;53.784;10.440;2023-08-20T09:47:18;22.50;99.90
7155;DHT22;3619;53.784;10.440;2023-08-20T09:49:47;22.60;99.90
7155;DHT22;3619;53.784;10.440;2023-08-20T09:52:17;22.60;99.90
7155;DHT22;3619;53.784;10.440;2023-08-20T09:54:52;22.70;99.90
7155;DHT22;3619;53.784;10.440;2023-08-20T09:57:27;22.70;99.90
7155;DHT22;3619;53.784;10.440;2023-08-20T09:59:58;22.80;99.90
7155;DHT22;3619;53.784;10.440;2023-08-20T10:02:27;22.80;99.90
7155;DHT22;3619;53.784;10.440;2023-08-20T10:04:53;23.00;99.90
7155;DHT22;3619;53.784;10.440;2023-08-20T10:07:22;23.00;99.90
7155;DHT22;3619;53.784;10.440;2023-08-20T10:09:52;23.20;99.90
7155;DHT22;3619;53.784;10.440;2023-08-20T10:12:19;23.00;99.90
7155;DHT22;3619;53.784;10.440;2023-08-20T10:14:46;22.90;99.90
7155;DHT22;3619;53.784;10.440;2023-08-20T10:17:13;23.00;99.90
7155;DHT22;3619;53.784;10.440;2023-08-20T10:19:42;23.10;99.90
7155;DHT22;3619;53.784;10.440;2023-08-20T10:22:13;22.90;99.90
7155;DHT22;3619;53.784;10.440;2023-08-20T10:24:41;23.00;99.90
7155;DHT22;3619;53.784;10.440;2023-08-20T10:27:09;23.00;99.90
7155;DHT22;3619;53.784;10.440;2023-08-20T10:29:37;23.10;99.90
7155;DHT22;3619;53.784;10.440;2023-08-20T10:32:06;22.80;99.90
7155;DHT22;3619;53.784;10.440;2023-08-20T10:34:39;22.80;99.90
7155;DHT22;3619;53.784;10.440;2023-08-20T10:37:10;23.20;99.90
7155;DHT22;3619;53.784;10.440;2023-08-20T10:39:39;23.30;99.90
7155;DHT22;3619;53.784;10.440;2023-08-20T10:42:23;23.50;99.90
7155;DHT22;3619;53.784;10.440;2023-08-20T10:44:59;23.10;99.90
7155;DHT22;3619;53.784;10.440;2023-08-20T10:47:34;23.10;99.90
7155;DHT22;3619;53.784;10.440;2023-08-20T10:50:02;23.10;99.90
7155;DHT22;3619;53.784;10.440;2023-08-20T10:52:38;23.10;99.90
7155;DHT22;3619;53.784;10.440;2023-08-20T10:55:07;23.40;99.90
7155;DHT22;3619;53.784;10.440;2023-08-20T10:57:35;23.70;99.90
7155;DHT22;3619;53.784;10.440;2023-08-20T11:00:06;23.80;99.90
7155;DHT22;3619;53.784;10.440;2023-08-20T11:02:37;23.60;99.90
7155;DHT22;3619;53.784;10.440;2023-08-20T11:05:16;23.60;99.90
7155;DHT22;3619;53.784;10.440;2023-08-20T11:07:46;23.70;99.90
7155;DHT22;3619;53.784;10.440;2023-08-20T11:10:15;23.90;99.90
7155;DHT22;3619;53.784;10.440;2023-08-20T11:12:42;23.80;99.90
7155;DHT22;3619;53.784;10.440;2023-08-20T11:15:10;23.50;99.90
7155;DHT22;3619;53.784;10.440;2023-08-20T11:17:41;23.70;99.90
7155;DHT22;3619;53.784;10.440;2023-08-20T11:20:09;24.10;99.90
7155;DHT22;3619;53.784;10.440;2023-08-20T11:22:38;24.40;99.90
7155;DHT22;3619;53.784;10.440;2023-08-20T11:25:10;24.50;99.90
7155;DHT22;3619;53.784;10.440;2023-08-20T11:27:42;24.20;99.90
7155;DHT22;3619;53.784;10.440;2023-08-20T11:30:10;24.20;99.90
7155;DHT22;3619;53.784;10.440;2023-08-20T11:32:38;24.40;99.90
7155;DHT22;3619;53.784;10.440;2023-08-20T11:35:06;24.40;99.90
7155;DHT22;3619;53.784;10.440;2023-08-20T11:37:34;24.30;99.90
7155;DHT22;3619;53.784;10.440;2023-08-20T11:40:01;24.30;99.90
7155;DHT22;3619;53.784;10.440;2023-08-20T11:42:29;24.50;99.90
7155;DHT22;3619;53.784;10.440;2023-08-20T11:44:56;24.60;99.90
7155;DHT22;3619;53.784;10.440;2023-08-20T11:47:23;24.40;99.90
7155;DHT22;3619;53.784;10.440;2023-08-20T11:50:02;24.50;99.90
7155;DHT22;3619;53.784;10.440;2023-08-20T11:52:31;24.60;99.90
7155;DHT22;3619;53.784;10.440;2023-08-20T11:54:58;24.40;99.90
7155;DHT22;3619;53.784;10.440;2023-08-20T11:57:26;24.50;99.90
7155;DHT22;3619;53.784;10.440;2023-08-20T11:59:54;24.50;99.90
7155;DHT22;3619;53.784;10.440;2023-08-20T12:02:25;24.50;99.90
7155;DHT22;3619;53.784;10.440;2023-08-20T12:04:55;24.30;99.90
7155;DHT22;3619;53.784;10.440;2023-08-20T12:07:26;24.20;99.90
7155;DHT22;3619;53.784;10.440;2023-08-20T12:09:53;24.00;99.90
7155;DHT22;3619;53.784;10.440;2023-08-20T12:12:20;24.00;99.90
7155;DHT22;3619;53.784;10.440;2023-08-20T12:14:48;24.20;99.90
7155;DHT22;3619;53.784;10.440;2023-08-20T12:17:19;24.60;99.90
7155;DHT22;3619;53.784;10.440;2023-08-20T12:19:46;24.80;99.90
7155;DHT22;3619;53.784;10.440;2023-08-20T12:22:13;25.10;99.90
7155;DHT22;3619;53.784;10.440;2023-08-20T12:24:40;25.30;99.90
7155;DHT22;3619;53.784;10.440;2023-08-20T12:27:07;25.10;99.90
7155;DHT22;3619;53.784;10.440;2023-08-20T12:29:34;25.20;99.90
7155;DHT22;3619;53.784;10.440;2023-08-20T12:32:01;25.20;99.90
7155;DHT22;3619;53.784;10.440;2023-08-20T12:34:30;25.40;99.90
7155;DHT22;3619;53.784;10.440;2023-08-20T12:36:58;25.40;99.90
7155;DHT22;3619;53.784;10.440;2023-08-20T12:39:25;25.30;99.90
7155;DHT22;3619;53.784;10.440;2023-08-20T12:41:51;25.30;99.90
7155;DHT22;3619;53.784;10.440;2023-08-20T12:44:19;25.00;99.90
7155;DHT22;3619;53.784;10.440;2023-08-20T12:46:46;25.10;99.90
7155;DHT22;3619;53.784;10.440;2023-08-20T12:49:13;24.90;99.90
7155;DHT22;3619;53.784;10.440;2023-08-20T12:51:41;24.80;99.90
7155;DHT22;3619;53.784;10.440;2023-08-20T12:54:08;25.00;99.90
7155;DHT22;3619;53.784;10.440;2023-08-20T12:56:36;25.20;99.90
7155;DHT22;3619;53.784;10.440;2023-08-20T12:59:03;25.40;99.90
7155;DHT22;3619;53.784;10.440;2023-08-20T13:01:30;25.20;99.90
7155;DHT22;3619;53.784;10.440;2023-08-20T13:03:57;25.00;99.90
7155;DHT22;3619;53.784;10.440;2023-08-20T13:06:25;24.80;99.90
7155;DHT22;3619;53.784;10.440;2023-08-20T13:08:56;24.80;99.90
7155;DHT22;3619;53.784;10.440;2023-08-20T13:11:25;24.70;99.90
7155;DHT22;3619;53.784;10.440;2023-08-20T13:13:52;24.50;99.90
7155;DHT22;3619;53.784;10.440;2023-08-20T13:16:20;24.40;99.90
7155;DHT22;3619;53.784;10.440;2023-08-20T13:18:47;24.40;99.90
7155;DHT22;3619;53.784;10.440;2023-08-20T13:21:14;24.70;99.90
7155;DHT22;3619;53.784;10.440;2023-08-20T13:23:41;24.90;99.90
7155;DHT22;3619;53.784;10.440;2023-08-20T13:26:11;25.10;99.90
7155;DHT22;3619;53.784;10.440;2023-08-20T13:28:38;25.20;99.90
7155;DHT22;3619;53.784;10.440;2023-08-20T13:31:06;25.00;99.90
7155;DHT22;3619;53.784;10.440;2023-08-20T13:33:32;25.00;99.90
7155;DHT22;3619;53.784;10.440;2023-08-20T13:35:59;25.30;99.90
7155;DHT22;3619;53.784;10.440;2023-08-20T13:38:26;25.60;99.90
7155;DHT22;3619;53.784;10.440;2023-08-20T13:40:53;25.70;99.90
7155;DHT22;3619;53.784;10.440;2023-08-20T13:43:22;25.90;99.90
7155;DHT22;3619;53.784;10.440;2023-08-20T13:45:50;26.10;99.90
7155;DHT22;3619;53.784;10.440;2023-08-20T13:48:17;26.20;99.90
7155;DHT22;3619;53.784;10.440;2023-08-20T13:50:43;26.00;99.90
7155;DHT22;3619;53.784;10.440;2023-08-20T13:53:13;26.00;99.90
7155;DHT22;3619;53.784;10.440;2023-08-20T13:55:40;25.40;99.90
7155;DHT22;3619;53.784;10.440;2023-08-20T13:58:06;25.10;99.90
7155;DHT22;3619;53.784;10.440;2023-08-20T14:00:35;25.10;99.90
7155;DHT22;3619;53.784;10.440;2023-08-20T14:03:02;25.10;99.90
7155;DHT22;3619;53.784;10.440;2023-08-20T14:05:29;25.20;99.90
7155;DHT22;3619;53.784;10.440;2023-08-20T14:07:56;25.20;99.90
7155;DHT22;3619;53.784;10.440;2023-08-20T14:10:23;25.40;99.90
7155;DHT22;3619;53.784;10.440;2023-08-20T14:12:50;25.60;99.90
7155;DHT22;3619;53.784;10.440;2023-08-20T14:15:20;25.60;99.90
7155;DHT22;3619;53.784;10.440;2023-08-20T14:17:48;25.60;99.90
7155;DHT22;3619;53.784;10.440;2023-08-20T14:20:15;25.30;99.90
7155;DHT22;3619;53.784;10.440;2023-08-20T14:22:42;25.30;99.90
7155;DHT22;3619;53.784;10.440;2023-08-20T14:25:09;25.40;99.90
7155;DHT22;3619;53.784;10.440;2023-08-20T14:27:36;25.50;99.90
7155;DHT22;3619;53.784;10.440;2023-08-20T14:30:07;25.40;99.90
7155;DHT22;3619;53.784;10.440;2023-08-20T14:32:36;25.50;99.90
7155;DHT22;3619;53.784;10.440;2023-08-20T14:35:05;25.50;99.90
7155;DHT22;3619;53.784;10.440;2023-08-20T14:37:32;25.80;99.90
7155;DHT22;3619;53.784;10.440;2023-08-20T14:40:05;25.80;99.90
7155;DHT22;3619;53.784;10.440;2023-08-20T14:42:32;25.80;99.90
7155;DHT22;3619;53.784;10.440;2023-08-20T14:45:00;25.80;99.90
7155;DHT22;3619;53.784;10.440;2023-08-20T14:47:28;25.70;99.90
7155;DHT22;3619;53.784;10.440;2023-08-20T14:49:55;25.60;99.90
7155;DHT22;3619;53.784;10.440;2023-08-20T14:52:24;25.80;99.90
7155;DHT22;3619;53.784;10.440;2023-08-20T14:54:51;26.20;99.90
7155;DHT22;3619;53.784;10.440;2023-08-20T14:57:18;26.30;99.90
7155;DHT22;3619;53.784;10.440;2023-08-20T14:59:45;26.30;99.90
7155;DHT22;3619;53.784;10.440;2023-08-20T15:02:11;26.10;99.90
7155;DHT22;3619;53.784;10.440;2023-08-20T15:04:38;26.00;99.90
7155;DHT22;3619;53.784;10.440;2023-08-20T15:07:05;26.00;99.90
7155;DHT22;3619;53.784;10.440;2023-08-20T15:09:37;26.30;99.90
7155;DHT22;3619;53.784;10.440;2023-08-20T15:12:04;26.20;99.90
7155;DHT22;3619;53.784;10.440;2023-08-20T15:14:32;26.00;99.90
7155;DHT22;3619;53.784;10.440;2023-08-20T15:17:06;25.90;99.90
7155;DHT22;3619;53.784;10.440;2023-08-20T15:19:40;25.90;99.90
7155;DHT22;3619;53.784;10.440;2023-08-20T15:22:10;25.70;99.90
7155;DHT22;3619;53.784;10.440;2023-08-20T15:24:46;25.80;99.90
7155;DHT22;3619;53.784;10.440;2023-08-20T15:27:13;25.90;99.90
7155;DHT22;3619;53.784;10.440;2023-08-20T15:29:44;25.80;99.90
7155;DHT22;3619;53.784;10.440;2023-08-20T15:32:11;25.70;99.90
7155;DHT22;3619;53.784;10.440;2023-08-20T15:34:38;25.60;99.90
7155;DHT22;3619;53.784;10.440;2023-08-20T15:37:05;25.30;99.90
7155;DHT22;3619;53.784;10.440;2023-08-20T15:39:32;25.20;99.90
7155;DHT22;3619;53.784;10.440;2023-08-20T15:42:00;25.20;99.90
7155;DHT22;3619;53.784;10.440;2023-08-20T15:44:27;25.30;99.90
7155;DHT22;3619;53.784;10.440;2023-08-20T15:46:54;25.50;99.90
7155;DHT22;3619;53.784;10.440;2023-08-20T15:49:21;25.50;99.90
7155;DHT22;3619;53.784;10.440;2023-08-20T15:51:49;25.70;99.90